Time;durP1;ratioP1;P1;durP2;ratioP2;P2;SDS_P1;SDS_P2;PMS_P1;PMS_P2;Temp;Humidity;BMP_temperature;BMP_pressure;BME280_temperature;BME280_humidity;BME280_pressure;Samples;Min_cycle;Max_cycle;Signal;HPM_P1;HPM_P2
2023/01/11 00:01:50;;;;;;;;;;;;;;;5.83;70.57;98490.34;7393099;19;19918;-83
2023/01/11 00:04:17;;;;;;;;;;;;;;;5.93;69.82;98493.91;7390172;19;19935;-85
2023/01/11 00:06:43;;;;;;;;;;;;;;;6.06;69.82;98478.88;7388427;19;19918;-85
2023/01/11 00:09:10;;;;;;;;;;;;;;;6.11;69.90;98489.84;7389564;19;20270;-87
2023/01/11 00:11:37;;;;;;;;;;;;;;;6.10;69.70;98479.44;7387954;19;20668;-84
2023/01/11 00:14:04;;;;;;;;;;;;;;;6.00;69.85;98479.34;7389358;19;20325;-84
2023/01/11 00:16:30;;;;;;;;;;;;;;;6.13;69.84;98479.19;7391720;19;19914;-85
2023/01/11 00:18:57;;;;;;;;;;;;;;;6.13;70.29;98468.69;7388140;19;19919;-84
2023/01/11 00:21:25;;;;;;;;;;;;;;;6.19;70.15;98472.59;7390552;19;19922;-85
2023/01/11 00:23:52;;;;;;;;;;;;;;;6.30;69.03;98481.28;7390230;19;20290;-86
2023/01/11 00:26:18;;;;;;;;;;;;;;;6.37;69.51;98477.19;7389572;19;19915;-84
2023/01/11 00:28:47;;;;;;;;;;;;;;;6.15;69.28;98467.59;7394913;19;19925;-84
2023/01/11 00:31:13;;;;;;;;;;;;;;;6.20;69.61;98469.03;7389926;19;19923;-84
2023/01/11 00:33:40;;;;;;;;;;;;;;;6.29;69.71;98460.38;7394707;19;19914;-84
2023/01/11 00:36:07;;;;;;;;;;;;;;;6.19;69.75;98459.47;7393190;19;19917;-84
2023/01/11 00:38:42;;;;;;;;;;;;;;;6.29;68.93;98457.75;7391316;19;19927;-85
2023/01/11 00:49:25;;;;;;;;;;;;;;;6.59;69.55;98434.19;7388094;19;19926;-84
2023/01/11 00:51:52;;;;;;;;;;;;;;;6.68;69.50;98432.56;7383450;19;20018;-86
2023/01/11 00:54:19;;;;;;;;;;;;;;;6.68;69.23;98431.72;7382394;19;19923;-85
2023/01/11 00:56:46;;;;;;;;;;;;;;;6.87;69.13;98425.75;7382492;19;20007;-86
2023/01/11 00:59:12;;;;;;;;;;;;;;;6.84;69.33;98423.38;7388333;19;19926;-85
2023/01/11 01:01:39;;;;;;;;;;;;;;;6.70;69.60;98424.56;7387144;19;19971;-86
2023/01/11 01:04:06;;;;;;;;;;;;;;;6.89;69.72;98427.28;7386019;19;19926;-86
2023/01/11 01:06:32;;;;;;;;;;;;;;;6.86;70.00;98424.09;7384536;19;19929;-86
2023/01/11 01:08:59;;;;;;;;;;;;;;;6.86;70.48;98418.81;7387281;19;19955;-85
2023/01/11 01:11:31;;;;;;;;;;;;;;;6.73;70.83;98413.78;7388734;19;19925;-85
2023/01/11 01:16:46;;;;;;;;;;;;;;;7.15;70.21;98419.78;7384748;19;19925;-88
2023/01/11 01:19:12;;;;;;;;;;;;;;;7.04;70.86;98406.72;7385092;19;19919;-86
2023/01/11 01:21:39;;;;;;;;;;;;;;;6.83;71.38;98404.13;7385816;19;19923;-83
2023/01/11 01:24:06;;;;;;;;;;;;;;;6.82;71.16;98407.75;7390065;19;19914;-83
2023/01/11 01:26:32;;;;;;;;;;;;;;;6.93;70.95;98404.19;7386710;19;19915;-84
2023/01/11 01:28:59;;;;;;;;;;;;;;;7.01;71.64;98409.63;7389304;19;19940;-86
2023/01/11 01:31:26;;;;;;;;;;;;;;;7.14;71.35;98406.78;7389210;19;19929;-86
2023/01/11 01:33:53;;;;;;;;;;;;;;;6.94;72.08;98405.84;7391724;19;19990;-84
2023/01/11 01:36:19;;;;;;;;;;;;;;;6.99;72.23;98412.38;7386827;19;19929;-84
2023/01/11 01:38:46;;;;;;;;;;;;;;;7.03;72.25;98413.78;7386779;19;19926;-84
2023/01/11 01:41:13;;;;;;;;;;;;;;;7.11;72.27;98414.91;7387053;19;19923;-86
2023/01/11 01:43:44;;;;;;;;;;;;;;;7.17;72.53;98417.84;7381824;19;20078;-86
2023/01/11 01:46:13;;;;;;;;;;;;;;;7.12;72.36;98409.53;7385204;19;20381;-85
2023/01/11 01:48:40;;;;;;;;;;;;;;;7.26;72.46;98411.78;7382985;19;20230;-85
2023/01/11 01:51:06;;;;;;;;;;;;;;;7.06;72.83;98398.69;7382539;19;19921;-86
2023/01/11 01:53:37;;;;;;;;;;;;;;;7.03;72.94;98400.63;7380793;19;19943;-86
2023/01/11 01:56:05;;;;;;;;;;;;;;;7.21;72.72;98392.09;7381457;19;19923;-84
2023/01/11 01:58:36;;;;;;;;;;;;;;;7.23;72.65;98392.78;7385913;19;19941;-85
2023/01/11 02:03:48;;;;;;;;;;;;;;;7.03;73.07;98376.97;7383761;19;20531;-87
2023/01/11 02:06:15;;;;;;;;;;;;;;;7.09;73.27;98382.66;7382903;19;21268;-86
2023/01/11 02:08:42;;;;;;;;;;;;;;;7.07;72.74;98374.06;7385766;19;19951;-83
2023/01/11 02:11:28;;;;;;;;;;;;;;;7.02;73.33;98372.66;7383845;19;19934;-83
2023/01/11 02:14:15;;;;;;;;;;;;;;;7.09;73.61;98372.13;7380506;19;19927;-83
2023/01/11 02:16:42;;;;;;;;;;;;;;;7.11;73.54;98364.91;7386461;19;19922;-85
2023/01/11 02:19:09;;;;;;;;;;;;;;;7.08;73.93;98355.50;7388228;19;19919;-85
2023/01/11 02:21:39;;;;;;;;;;;;;;;7.14;73.65;98346.25;7381750;19;20613;-87
2023/01/11 02:24:08;;;;;;;;;;;;;;;7.19;73.60;98354.56;7384260;19;19923;-86
2023/01/11 02:26:40;;;;;;;;;;;;;;;7.12;73.67;98350.81;7383126;19;19918;-85
2023/01/11 02:29:07;;;;;;;;;;;;;;;7.27;73.54;98352.09;7386844;19;19937;-86
2023/01/11 02:31:36;;;;;;;;;;;;;;;7.24;73.32;98344.44;7383425;19;19914;-86
2023/01/11 02:34:03;;;;;;;;;;;;;;;7.21;73.61;98331.56;7381931;19;19929;-85
2023/01/11 02:36:48;;;;;;;;;;;;;;;7.42;73.11;98332.28;7387887;19;19915;-86
2023/01/11 02:39:32;;;;;;;;;;;;;;;7.22;73.92;98330.63;7389969;19;19982;-86
2023/01/11 02:45:16;;;;;;;;;;;;;;;7.20;74.23;98325.47;7385015;19;19914;-83
2023/01/11 02:48:08;;;;;;;;;;;;;;;7.53;73.26;98335.78;7382611;19;20025;-88
2023/01/11 02:50:43;;;;;;;;;;;;;;;7.61;73.14;98334.13;7383281;19;19926;-86
2023/01/11 02:53:19;;;;;;;;;;;;;;;7.36;74.03;98329.41;7384676;19;19929;-86
2023/01/11 02:55:47;;;;;;;;;;;;;;;7.44;73.73;98327.72;7382665;19;20502;-86
2023/01/11 02:58:14;;;;;;;;;;;;;;;7.47;73.56;98324.81;7384528;19;19915;-87
2023/01/11 03:00:40;;;;;;;;;;;;;;;7.59;73.42;98322.09;7380035;19;19910;-87
2023/01/11 03:03:12;;;;;;;;;;;;;;;7.70;73.30;98319.31;7383922;19;20388;-87
2023/01/11 03:05:41;;;;;;;;;;;;;;;7.62;72.92;98314.72;7383604;19;19919;-87
2023/01/11 03:08:12;;;;;;;;;;;;;;;7.75;73.03;98314.44;7385223;19;19919;-86
2023/01/11 03:10:39;;;;;;;;;;;;;;;7.78;73.31;98324.69;7383760;19;19918;-86
2023/01/11 03:13:15;;;;;;;;;;;;;;;7.62;73.73;98320.00;7392195;19;20025;-87
2023/01/11 03:15:52;;;;;;;;;;;;;;;7.58;74.57;98318.63;7388437;19;19914;-86
2023/01/11 03:18:38;;;;;;;;;;;;;;;7.70;74.30;98329.84;7394851;19;19926;-86
2023/01/11 03:21:07;;;;;;;;;;;;;;;7.65;74.20;98319.72;7389113;19;19926;-86
2023/01/11 03:23:52;;;;;;;;;;;;;;;7.71;74.59;98320.94;7389433;19;19918;-86
2023/01/11 03:26:23;;;;;;;;;;;;;;;7.65;74.96;98332.06;7387469;19;19906;-87
2023/01/11 03:28:50;;;;;;;;;;;;;;;7.87;73.87;98321.25;7390881;19;19933;-86
2023/01/11 03:31:26;;;;;;;;;;;;;;;7.75;74.36;98314.44;7391849;19;19929;-87
2023/01/11 03:33:59;;;;;;;;;;;;;;;7.85;74.04;98311.81;7385649;19;20301;-87
2023/01/11 03:36:27;;;;;;;;;;;;;;;7.77;74.80;98309.06;7384997;19;20327;-86
2023/01/11 03:38:55;;;;;;;;;;;;;;;7.72;75.03;98301.56;7381633;19;19918;-84
2023/01/11 03:41:23;;;;;;;;;;;;;;;7.88;74.49;98301.81;7378925;19;19911;-85
2023/01/11 03:43:51;;;;;;;;;;;;;;;8.19;74.13;98304.28;7378670;19;19922;-87
2023/01/11 03:46:19;;;;;;;;;;;;;;;8.10;74.09;98305.94;7380218;19;19925;-84
2023/01/11 03:48:48;;;;;;;;;;;;;;;8.18;73.98;98301.78;7384740;19;20345;-85
2023/01/11 03:51:16;;;;;;;;;;;;;;;8.15;73.89;98292.34;7380263;19;19915;-86
2023/01/11 03:53:43;;;;;;;;;;;;;;;8.15;73.91;98297.63;7385504;19;19922;-85
2023/01/11 03:56:10;;;;;;;;;;;;;;;8.19;73.93;98277.06;7381716;19;20625;-85
2023/01/11 03:58:37;;;;;;;;;;;;;;;8.18;74.00;98297.31;7386508;19;19922;-86
2023/01/11 04:01:04;;;;;;;;;;;;;;;8.16;73.97;98288.72;7384966;19;19919;-87
2023/01/11 04:03:30;;;;;;;;;;;;;;;7.96;74.75;98293.22;7383145;19;19946;-87
2023/01/11 04:05:58;;;;;;;;;;;;;;;8.10;74.36;98289.31;7385209;19;20589;-86
2023/01/11 04:08:25;;;;;;;;;;;;;;;8.12;74.60;98279.47;7385179;19;19946;-86
2023/01/11 04:10:52;;;;;;;;;;;;;;;8.08;74.31;98275.44;7387144;19;19922;-86
2023/01/11 04:13:19;;;;;;;;;;;;;;;7.91;74.99;98272.56;7383971;19;19939;-86
2023/01/11 04:15:46;;;;;;;;;;;;;;;8.07;74.49;98268.50;7388867;19;19943;-87
2023/01/11 04:18:12;;;;;;;;;;;;;;;8.01;74.81;98264.66;7405857;19;19911;-87
2023/01/11 04:20:39;;;;;;;;;;;;;;;8.10;74.54;98262.97;7400208;19;21702;-86
2023/01/11 04:23:06;;;;;;;;;;;;;;;7.87;75.09;98267.72;7386347;19;19919;-86
2023/01/11 04:25:33;;;;;;;;;;;;;;;8.04;74.85;98260.91;7382575;19;19930;-86
2023/01/11 04:27:59;;;;;;;;;;;;;;;8.10;74.58;98255.88;7382186;19;19988;-85
2023/01/11 04:30:26;;;;;;;;;;;;;;;7.97;75.24;98251.91;7384663;19;19929;-85
2023/01/11 04:32:52;;;;;;;;;;;;;;;8.19;74.63;98248.94;7384644;19;19945;-86
2023/01/11 04:35:19;;;;;;;;;;;;;;;7.91;75.50;98254.13;7382160;19;19926;-86
2023/01/11 04:37:46;;;;;;;;;;;;;;;7.96;75.32;98255.53;7382130;19;19982;-84
2023/01/11 04:40:13;;;;;;;;;;;;;;;8.01;75.46;98248.84;7384097;19;19978;-87
2023/01/11 04:42:40;;;;;;;;;;;;;;;8.03;75.26;98256.59;7390313;19;19925;-83
2023/01/11 04:45:07;;;;;;;;;;;;;;;8.13;75.17;98252.13;7388645;19;19940;-83
2023/01/11 04:47:34;;;;;;;;;;;;;;;8.12;74.93;98253.13;7388638;19;19922;-83
2023/01/11 04:50:00;;;;;;;;;;;;;;;8.05;75.19;98252.00;7388439;19;21669;-84
2023/01/11 04:52:27;;;;;;;;;;;;;;;8.07;74.98;98247.44;7390419;19;20268;-83
2023/01/11 04:54:56;;;;;;;;;;;;;;;8.03;75.57;98240.78;7385327;19;19925;-83
2023/01/11 04:57:24;;;;;;;;;;;;;;;7.77;76.18;98241.41;7386603;19;19919;-82
2023/01/11 04:59:50;;;;;;;;;;;;;;;7.69;76.53;98226.31;7387825;19;19993;-82
2023/01/11 05:02:17;;;;;;;;;;;;;;;7.74;76.45;98231.16;7385358;19;19951;-82
2023/01/11 05:04:43;;;;;;;;;;;;;;;7.73;76.07;98247.09;7381506;19;19923;-83
2023/01/11 05:07:10;;;;;;;;;;;;;;;7.74;76.17;98244.34;7382829;19;19973;-84
2023/01/11 05:09:37;;;;;;;;;;;;;;;7.66;76.30;98249.44;7382447;19;19919;-84
2023/01/11 05:12:03;;;;;;;;;;;;;;;7.51;76.80;98249.06;7378533;19;19923;-84
2023/01/11 05:14:30;;;;;;;;;;;;;;;7.54;76.87;98248.78;7378505;19;19923;-83
2023/01/11 05:16:57;;;;;;;;;;;;;;;7.45;77.62;98255.72;7380585;19;19918;-83
2023/01/11 05:19:24;;;;;;;;;;;;;;;7.60;77.17;98247.38;7381658;19;19918;-83
2023/01/11 05:21:50;;;;;;;;;;;;;;;7.55;77.48;98236.44;7377797;19;19914;-83
2023/01/11 05:24:17;;;;;;;;;;;;;;;7.60;77.74;98234.22;7377419;19;19922;-83
2023/01/11 05:26:47;;;;;;;;;;;;;;;7.74;77.28;98222.41;7376191;19;19926;-82
2023/01/11 05:29:15;;;;;;;;;;;;;;;7.59;77.65;98217.59;7380022;19;19929;-83
2023/01/11 05:31:41;;;;;;;;;;;;;;;7.67;77.94;98219.53;7378209;19;19940;-82
2023/01/11 05:34:09;;;;;;;;;;;;;;;7.60;77.78;98219.25;7378247;19;20298;-84
2023/01/11 05:36:35;;;;;;;;;;;;;;;7.67;77.60;98215.09;7377079;19;20324;-82
2023/01/11 05:39:03;;;;;;;;;;;;;;;7.50;78.09;98213.16;7378730;19;19927;-81
2023/01/11 05:41:29;;;;;;;;;;;;;;;7.48;78.47;98226.47;7379563;19;20341;-84
2023/01/11 05:46:42;;;;;;;;;;;;;;;7.47;78.24;98239.75;7376775;19;19923;-84
2023/01/11 05:49:08;;;;;;;;;;;;;;;7.43;78.45;98231.31;7379809;19;19926;-83
2023/01/11 05:51:36;;;;;;;;;;;;;;;7.49;78.21;98222.03;7377126;19;19923;-84
2023/01/11 05:54:04;;;;;;;;;;;;;;;7.51;78.05;98221.91;7374807;19;20377;-83
2023/01/11 05:56:30;;;;;;;;;;;;;;;7.47;78.41;98219.53;7379433;19;19915;-84
2023/01/11 05:58:57;;;;;;;;;;;;;;;7.52;78.81;98218.28;7377771;19;19931;-85
2023/01/11 06:01:24;;;;;;;;;;;;;;;7.48;78.56;98212.50;7373933;19;19931;-83
2023/01/11 06:03:51;;;;;;;;;;;;;;;7.38;79.24;98201.13;7369008;19;20385;-82
2023/01/11 06:06:19;;;;;;;;;;;;;;;7.46;78.79;98199.47;7377098;19;19918;-83
2023/01/11 06:08:45;;;;;;;;;;;;;;;7.42;78.88;98200.69;7379212;19;19919;-83
2023/01/11 06:11:13;;;;;;;;;;;;;;;7.39;79.09;98193.09;7382579;19;19915;-81
2023/01/11 06:13:40;;;;;;;;;;;;;;;7.48;78.73;98191.44;7385568;19;19919;-81
2023/01/11 06:16:11;;;;;;;;;;;;;;;7.41;78.96;98183.25;7383106;19;20325;-78
2023/01/11 06:18:38;;;;;;;;;;;;;;;7.45;79.17;98176.75;7369487;19;19918;-79
2023/01/11 06:21:05;;;;;;;;;;;;;;;7.63;78.72;98170.75;7368510;19;19915;-78
2023/01/11 06:23:32;;;;;;;;;;;;;;;7.65;78.55;98168.81;7377508;19;20345;-81
2023/01/11 06:25:59;;;;;;;;;;;;;;;7.70;78.09;98169.22;7383858;19;19927;-82
2023/01/11 06:28:26;;;;;;;;;;;;;;;7.70;77.77;98172.66;7381864;19;19929;-82
2023/01/11 06:30:53;;;;;;;;;;;;;;;7.74;77.73;98178.50;7377026;19;20348;-82
2023/01/11 06:33:20;;;;;;;;;;;;;;;7.66;78.26;98166.03;7382137;19;19931;-80
2023/01/11 06:35:47;;;;;;;;;;;;;;;7.71;78.00;98165.59;7379857;19;23014;-82
2023/01/11 06:38:14;;;;;;;;;;;;;;;7.62;78.34;98169.91;7383324;19;20669;-82
2023/01/11 06:40:40;;;;;;;;;;;;;;;7.69;78.29;98164.94;7383896;19;20396;-82
2023/01/11 06:43:07;;;;;;;;;;;;;;;7.76;78.36;98163.38;7378752;19;20640;-81
2023/01/11 06:45:37;;;;;;;;;;;;;;;7.73;78.23;98161.03;7384315;19;19919;-83
2023/01/11 06:48:04;;;;;;;;;;;;;;;7.78;78.15;98174.59;7393592;19;20392;-81
2023/01/11 06:50:30;;;;;;;;;;;;;;;7.68;78.68;98163.25;7393235;19;20336;-82
2023/01/11 06:52:58;;;;;;;;;;;;;;;7.72;78.50;98172.53;7391861;19;19929;-82
2023/01/11 06:55:25;;;;;;;;;;;;;;;7.74;78.53;98167.09;7389788;19;19939;-82
2023/01/11 06:57:52;;;;;;;;;;;;;;;7.67;78.59;98167.69;7389652;19;19914;-83
2023/01/11 07:00:19;;;;;;;;;;;;;;;7.78;78.19;98174.59;7392563;19;19914;-83
2023/01/11 07:02:46;;;;;;;;;;;;;;;7.77;77.94;98172.94;7387024;19;19942;-84
2023/01/11 07:05:13;;;;;;;;;;;;;;;7.75;77.98;98172.25;7383429;19;20008;-83
2023/01/11 07:07:40;;;;;;;;;;;;;;;7.75;78.23;98168.78;7388368;19;19926;-84
2023/01/11 07:10:08;;;;;;;;;;;;;;;7.64;nan;98173.25;7387470;19;19934;-84
2023/01/11 07:12:35;;;;;;;;;;;;;;;7.75;78.00;98166.16;7386657;19;19907;-84
2023/01/11 07:15:02;;;;;;;;;;;;;;;7.58;78.62;98167.69;7388312;19;20537;-83
2023/01/11 07:17:29;;;;;;;;;;;;;;;7.61;78.64;98170.03;7388361;19;19911;-82
2023/01/11 07:19:55;;;;;;;;;;;;;;;7.65;78.38;98158.28;7386279;19;20354;-83
2023/01/11 07:22:22;;;;;;;;;;;;;;;7.82;78.03;98162.81;7389348;19;19919;-83
2023/01/11 07:24:49;;;;;;;;;;;;;;;7.77;77.88;98157.16;7387891;19;19914;-84
2023/01/11 07:27:16;;;;;;;;;;;;;;;7.65;78.30;98150.38;7385922;19;19911;-83
2023/01/11 07:29:43;;;;;;;;;;;;;;;7.75;78.49;98160.88;7390258;19;19955;-83
2023/01/11 07:32:09;;;;;;;;;;;;;;;7.86;78.05;98160.72;7393426;19;19918;-82
2023/01/11 07:34:36;;;;;;;;;;;;;;;7.98;77.77;98156.06;7392393;19;20541;-82
2023/01/11 07:37:03;;;;;;;;;;;;;;;7.96;77.71;98155.41;7393726;19;19939;-80
2023/01/11 07:39:30;;;;;;;;;;;;;;;8.04;77.64;98160.78;7388601;19;19970;-84
2023/01/11 07:44:55;;;;;;;;;;;;;;;8.15;77.44;98160.59;7388530;19;19931;-84
2023/01/11 07:47:21;;;;;;;;;;;;;;;8.38;76.92;98166.31;7388578;19;19911;-84
2023/01/11 07:49:48;;;;;;;;;;;;;;;8.45;76.56;98162.16;7392904;19;19921;-83
2023/01/11 07:52:15;;;;;;;;;;;;;;;8.54;76.44;98166.53;7391323;19;19921;-84
2023/01/11 07:54:41;;;;;;;;;;;;;;;8.58;76.26;98161.78;7387248;19;19923;-84
2023/01/11 07:57:08;;;;;;;;;;;;;;;8.46;76.67;98157.72;7389596;19;19943;-85
2023/01/11 07:59:35;;;;;;;;;;;;;;;8.55;76.39;98162.06;7380921;19;19918;-85
2023/01/11 08:02:01;;;;;;;;;;;;;;;8.39;76.96;98167.13;7385698;19;21022;-84
2023/01/11 08:04:28;;;;;;;;;;;;;;;8.66;76.12;98161.88;7386189;19;19993;-85
2023/01/11 08:06:55;;;;;;;;;;;;;;;8.53;76.44;98162.25;7387620;19;19931;-85
2023/01/11 08:09:24;;;;;;;;;;;;;;;8.48;76.67;98166.31;7386075;19;19922;-84
2023/01/11 08:14:38;;;;;;;;;;;;;;;8.71;76.05;98161.41;7386240;19;19928;-83
2023/01/11 08:17:08;;;;;;;;;;;;;;;8.86;75.87;98169.66;7388252;19;20316;-84
2023/01/11 08:19:34;;;;;;;;;;;;;;;8.83;76.03;98167.31;7384452;19;20377;-84
2023/01/11 08:22:01;;;;;;;;;;;;;;;8.84;75.67;98168.97;7380136;19;19983;-84
2023/01/11 08:24:28;;;;;;;;;;;;;;;8.85;75.99;98170.66;7381355;19;20265;-81
2023/01/11 08:26:54;;;;;;;;;;;;;;;8.91;75.69;98170.03;7389762;19;19918;-83
2023/01/11 08:29:21;;;;;;;;;;;;;;;8.87;75.78;98174.78;7389626;19;19930;-80
2023/01/11 08:31:48;;;;;;;;;;;;;;;8.94;75.61;98175.84;7389357;19;19935;-84
2023/01/11 08:34:14;;;;;;;;;;;;;;;9.00;75.30;98166.50;7384467;19;19921;-84
2023/01/11 08:36:41;;;;;;;;;;;;;;;9.10;75.21;98169.06;7382217;19;19927;-85
2023/01/11 08:39:08;;;;;;;;;;;;;;;8.94;75.79;98167.91;7383933;19;19981;-82
2023/01/11 08:41:34;;;;;;;;;;;;;;;8.93;75.89;98168.09;7384585;19;21883;-80
2023/01/11 08:44:01;;;;;;;;;;;;;;;8.87;76.07;98171.31;7388726;19;20013;-81
2023/01/11 08:46:27;;;;;;;;;;;;;;;8.78;75.99;98157.22;7382144;19;19938;-81
2023/01/11 08:48:54;;;;;;;;;;;;;;;8.83;76.06;98148.88;7381675;19;20314;-80
2023/01/11 08:51:20;;;;;;;;;;;;;;;8.92;75.64;98143.50;7378868;19;19919;-80
2023/01/11 08:53:47;;;;;;;;;;;;;;;8.98;75.63;98156.09;7372279;19;19930;-81
2023/01/11 08:56:14;;;;;;;;;;;;;;;9.05;75.37;98158.13;7373631;19;19914;-79
2023/01/11 08:58:41;;;;;;;;;;;;;;;9.05;75.37;98156.31;7378754;19;19918;-80
2023/01/11 09:01:08;;;;;;;;;;;;;;;9.15;75.04;98161.50;7384588;19;19915;-82
2023/01/11 09:03:35;;;;;;;;;;;;;;;9.11;74.79;98162.78;7384384;19;20277;-83
2023/01/11 09:06:01;;;;;;;;;;;;;;;9.14;75.07;98165.16;7387760;19;19978;-82
2023/01/11 09:08:28;;;;;;;;;;;;;;;8.98;75.00;98164.00;7389872;19;19994;-81
2023/01/11 09:10:55;;;;;;;;;;;;;;;8.95;75.35;98155.56;7385043;19;19984;-80
2023/01/11 09:13:22;;;;;;;;;;;;;;;9.06;75.53;98160.63;7382921;19;19915;-82
2023/01/11 09:15:48;;;;;;;;;;;;;;;9.27;75.08;98160.31;7379017;19;19919;-81
2023/01/11 09:18:15;;;;;;;;;;;;;;;9.23;75.08;98151.84;7378519;19;19918;-78
2023/01/11 09:20:42;;;;;;;;;;;;;;;9.32;74.92;98159.84;7376006;19;20277;-83
2023/01/11 09:23:08;;;;;;;;;;;;;;;9.40;74.92;98152.81;7385018;19;19922;-82
2023/01/11 09:25:35;;;;;;;;;;;;;;;9.34;74.87;98152.59;7388390;19;19923;-82
2023/01/11 09:28:02;;;;;;;;;;;;;;;9.32;74.88;98152.75;7382708;19;19926;-81
2023/01/11 09:30:29;;;;;;;;;;;;;;;9.40;74.91;98154.59;7382898;19;19931;-82
2023/01/11 09:32:57;;;;;;;;;;;;;;;9.43;74.74;98152.50;7378611;19;19918;-81
2023/01/11 09:35:24;;;;;;;;;;;;;;;9.55;74.46;98154.91;7383672;19;19925;-84
2023/01/11 09:37:52;;;;;;;;;;;;;;;9.51;74.49;98149.09;7384749;19;19922;-82
2023/01/11 09:40:20;;;;;;;;;;;;;;;9.53;74.43;98154.22;7382001;19;20355;-81
2023/01/11 09:42:47;;;;;;;;;;;;;;;9.49;74.76;98148.41;7381589;19;19922;-81
2023/01/11 09:45:19;;;;;;;;;;;;;;;9.63;74.42;98153.13;7382761;19;19914;-83
2023/01/11 09:47:45;;;;;;;;;;;;;;;9.69;74.18;98157.00;7380281;19;19914;-80
2023/01/11 09:50:14;;;;;;;;;;;;;;;9.54;74.48;98145.31;7383834;19;19918;-83
2023/01/11 09:52:42;;;;;;;;;;;;;;;9.73;74.00;98155.69;7383499;19;19918;-81
2023/01/11 09:55:18;;;;;;;;;;;;;;;9.64;74.02;98144.25;7380863;19;19923;-83
2023/01/11 09:57:45;;;;;;;;;;;;;;;9.73;73.68;98141.66;7384477;19;19927;-81
2023/01/11 10:00:19;;;;;;;;;;;;;;;9.68;74.19;98152.66;7385695;19;19915;-82
2023/01/11 10:03:04;;;;;;;;;;;;;;;9.61;74.66;98143.69;7384823;19;19970;-82
2023/01/11 10:05:33;;;;;;;;;;;;;;;9.65;74.44;98150.34;7378498;19;19919;-83
2023/01/11 10:08:23;;;;;;;;;;;;;;;9.75;73.89;98145.78;7377052;19;19922;-83
2023/01/11 10:11:26;;;;;;;;;;;;;;;9.91;73.36;98147.69;7377602;19;21874;-84
2023/01/11 10:14:17;;;;;;;;;;;;;;;9.98;73.57;98143.44;7375770;19;19966;-84
2023/01/11 10:17:12;;;;;;;;;;;;;;;9.80;73.58;98137.41;7388382;19;19915;-83
2023/01/11 10:20:00;;;;;;;;;;;;;;;9.83;73.74;98142.38;7389175;19;19922;-84
2023/01/11 10:22:38;;;;;;;;;;;;;;;9.89;73.64;98142.56;7388535;19;19923;-84
2023/01/11 10:25:17;;;;;;;;;;;;;;;9.93;73.54;98145.72;7389768;19;19923;-84
2023/01/11 10:27:59;;;;;;;;;;;;;;;9.92;73.51;98141.41;7389365;19;19938;-84
2023/01/11 10:30:48;;;;;;;;;;;;;;;9.86;73.73;98142.88;7397705;19;19919;-84
2023/01/11 10:36:54;;;;;;;;;;;;;;;9.93;73.41;98143.09;7386150;19;19931;-83
2023/01/11 10:39:54;;;;;;;;;;;;;;;10.04;73.44;98139.34;7387780;19;20803;-85
2023/01/11 10:42:25;;;;;;;;;;;;;;;10.07;73.04;98134.56;7384231;19;19979;-84
2023/01/11 10:45:01;;;;;;;;;;;;;;;9.89;73.67;98131.97;7381227;19;21836;-83
2023/01/11 10:47:29;;;;;;;;;;;;;;;10.13;73.35;98134.91;7385782;19;19910;-83
2023/01/11 10:50:02;;;;;;;;;;;;;;;10.05;73.66;98131.22;7383415;19;19922;-85
2023/01/11 10:52:40;;;;;;;;;;;;;;;10.00;73.61;98130.06;7381507;19;19948;-84
2023/01/11 10:55:11;;;;;;;;;;;;;;;10.13;73.94;98135.72;7381809;19;19913;-84
2023/01/11 10:57:47;;;;;;;;;;;;;;;10.22;73.29;98134.78;7390669;19;19914;-84
2023/01/11 11:00:36;;;;;;;;;;;;;;;10.37;73.38;98137.66;7383056;19;19918;-84
2023/01/11 11:03:07;;;;;;;;;;;;;;;10.15;74.47;98135.59;7380967;19;20507;-85
2023/01/11 11:05:41;;;;;;;;;;;;;;;10.14;74.71;98132.13;7386804;19;19919;-84
2023/01/11 11:08:28;;;;;;;;;;;;;;;10.10;75.35;98134.22;7394171;19;19959;-83
2023/01/11 11:10:58;;;;;;;;;;;;;;;10.21;75.93;98124.38;7387381;19;19956;-84
2023/01/11 11:13:24;;;;;;;;;;;;;;;10.12;76.39;98120.88;7391762;19;19911;-85
2023/01/11 11:15:54;;;;;;;;;;;;;;;10.00;76.27;98122.13;7392811;19;19922;-85
2023/01/11 11:18:22;;;;;;;;;;;;;;;10.24;76.46;98119.59;7397653;19;19931;-86
2023/01/11 11:20:49;;;;;;;;;;;;;;;10.21;76.33;98121.72;7392347;19;20253;-85
2023/01/11 11:23:17;;;;;;;;;;;;;;;10.10;76.38;98110.44;7388057;19;20014;-85
2023/01/11 11:25:47;;;;;;;;;;;;;;;10.01;76.67;98123.81;7389376;19;20484;-84
2023/01/11 11:28:26;;;;;;;;;;;;;;;10.21;76.84;98114.63;7385582;19;20933;-84
2023/01/11 11:30:54;;;;;;;;;;;;;;;10.22;76.81;98112.81;7386766;19;19914;-86
2023/01/11 11:33:34;;;;;;;;;;;;;;;10.06;76.69;98108.31;7389817;19;19943;-84
2023/01/11 11:36:05;;;;;;;;;;;;;;;10.13;77.14;98108.47;7390532;19;20515;-84
2023/01/11 11:38:36;;;;;;;;;;;;;;;10.28;76.82;98104.28;7394871;19;19918;-84
2023/01/11 11:41:09;;;;;;;;;;;;;;;10.28;76.94;98098.97;7389181;19;20117;-82
2023/01/11 11:43:38;;;;;;;;;;;;;;;10.42;76.79;98101.00;7388231;19;19935;-86
2023/01/11 11:46:14;;;;;;;;;;;;;;;10.53;76.94;98092.78;7389602;19;19935;-85
2023/01/11 11:49:03;;;;;;;;;;;;;;;10.62;76.39;98095.44;7390933;19;19919;-84
2023/01/11 11:51:30;;;;;;;;;;;;;;;10.63;75.97;98092.59;7380096;19;19922;-83
2023/01/11 11:53:56;;;;;;;;;;;;;;;10.53;76.41;98091.91;7378902;19;19927;-84
2023/01/11 11:56:29;;;;;;;;;;;;;;;10.62;76.34;98092.78;7385030;19;20674;-84
2023/01/11 11:58:56;;;;;;;;;;;;;;;10.53;76.86;98090.13;7386405;19;19922;-84
2023/01/11 12:01:38;;;;;;;;;;;;;;;10.30;76.91;98100.47;7383534;19;19921;-82
2023/01/11 12:04:11;;;;;;;;;;;;;;;10.39;78.02;98098.69;7386457;19;19986;-83
2023/01/11 12:06:37;;;;;;;;;;;;;;;10.35;78.32;98089.44;7375971;19;19929;-84
2023/01/11 12:09:04;;;;;;;;;;;;;;;10.40;78.49;98088.91;7387630;19;19923;-83
2023/01/11 12:11:33;;;;;;;;;;;;;;;10.40;78.48;98092.41;7386177;19;19919;-83
2023/01/11 12:14:05;;;;;;;;;;;;;;;10.38;79.15;98088.28;7385842;19;19921;-85
2023/01/11 12:16:34;;;;;;;;;;;;;;;10.34;78.83;98085.09;7379170;19;19906;-82
2023/01/11 12:19:00;;;;;;;;;;;;;;;10.40;78.94;98083.63;7387138;19;19929;-84
2023/01/11 12:21:29;;;;;;;;;;;;;;;10.28;79.46;98081.28;7384504;19;20273;-84
2023/01/11 12:24:09;;;;;;;;;;;;;;;10.14;79.45;98081.03;7382782;19;19927;-83
2023/01/11 12:26:45;;;;;;;;;;;;;;;10.23;79.96;98082.75;7384003;19;19939;-86
2023/01/11 12:29:24;;;;;;;;;;;;;;;10.33;80.10;98080.81;7388980;19;19932;-86
2023/01/11 12:31:53;;;;;;;;;;;;;;;10.32;80.54;98084.44;7388273;19;19943;-87
2023/01/11 12:34:20;;;;;;;;;;;;;;;10.29;80.74;98079.47;7393406;19;19923;-87
2023/01/11 12:36:50;;;;;;;;;;;;;;;10.39;80.43;98072.22;7388858;19;19914;-86
2023/01/11 12:39:24;;;;;;;;;;;;;;;10.43;80.25;98075.41;7391289;19;19925;-88
2023/01/11 12:42:09;;;;;;;;;;;;;;;10.43;80.46;98073.56;7395222;19;19919;-86
2023/01/11 12:44:40;;;;;;;;;;;;;;;10.48;80.11;98079.22;7392158;19;19982;-86
2023/01/11 12:47:13;;;;;;;;;;;;;;;10.50;80.25;98076.38;7394900;19;19921;-85
2023/01/11 12:49:57;;;;;;;;;;;;;;;10.52;79.99;98074.41;7389276;19;19914;-85
2023/01/11 12:52:27;;;;;;;;;;;;;;;10.59;80.00;98083.34;7394916;19;19922;-85
2023/01/11 12:55:00;;;;;;;;;;;;;;;10.65;79.85;98084.53;7392619;19;19922;-84
2023/01/11 12:57:30;;;;;;;;;;;;;;;10.65;80.30;98077.41;7393320;19;19949;-84
2023/01/11 13:00:09;;;;;;;;;;;;;;;10.65;79.69;98082.69;7389900;19;20363;-85
2023/01/11 13:02:48;;;;;;;;;;;;;;;10.46;80.01;98097.06;7389707;19;20228;-88
2023/01/11 13:05:34;;;;;;;;;;;;;;;10.55;80.66;98092.59;7384314;19;20336;-86
2023/01/11 13:08:03;;;;;;;;;;;;;;;10.60;80.05;98090.28;7385481;19;19922;-84
2023/01/11 13:10:39;;;;;;;;;;;;;;;10.45;80.76;98105.13;7389779;19;19921;-87
2023/01/11 13:13:07;;;;;;;;;;;;;;;10.43;81.43;98102.66;7386650;19;19911;-84
2023/01/11 13:15:42;;;;;;;;;;;;;;;10.40;81.36;98105.63;7376118;19;19929;-86
2023/01/11 13:18:14;;;;;;;;;;;;;;;10.34;81.86;98111.56;7381232;19;19925;-86
2023/01/11 13:20:47;;;;;;;;;;;;;;;10.57;81.72;98108.31;7379617;19;19948;-87
2023/01/11 13:23:31;;;;;;;;;;;;;;;10.53;81.93;98113.94;7377082;19;19915;-88
2023/01/11 13:26:00;;;;;;;;;;;;;;;10.61;81.79;98105.19;7381508;19;20475;-86
2023/01/11 13:28:28;;;;;;;;;;;;;;;10.57;81.42;98095.09;7382285;19;20451;-86
2023/01/11 13:30:55;;;;;;;;;;;;;;;10.63;81.46;98105.00;7388187;19;19919;-85
2023/01/11 13:33:25;;;;;;;;;;;;;;;10.54;81.72;98112.13;7383364;19;19947;-89
2023/01/11 13:35:54;;;;;;;;;;;;;;;10.59;81.45;98109.00;7386236;19;19944;-85
2023/01/11 13:38:26;;;;;;;;;;;;;;;10.55;81.77;98109.28;7384093;19;19966;-89